Time;durP1;ratioP1;P1;durP2;ratioP2;P2;SDS_P1;SDS_P2;PMS_P1;PMS_P2;Temp;Humidity;BMP_temperature;BMP_pressure;BME280_temperature;BME280_humidity;BME280_pressure;Samples;Min_cycle;Max_cycle;Signal;HPM_P1;HPM_P2
2022/05/09 00:02:15;;;;;;;7.10;4.15;;;;;;;17.03;50.04;101186.22;4975569;28;97850;-73
2022/05/09 00:04:40;;;;;;;10.55;3.90;;;;;;;16.94;49.15;101150.38;4991552;28;97364;-73
2022/05/09 00:07:06;;;;;;;7.63;4.55;;;;;;;17.09;49.34;101183.28;4991735;28;96894;-73
2022/05/09 00:09:32;;;;;;;7.18;4.30;;;;;;;16.86;48.95;101149.88;4958538;28;96804;-76
2022/05/09 00:11:58;;;;;;;10.13;4.03;;;;;;;16.68;49.04;101143.63;4992380;28;98186;-74
2022/05/09 00:14:24;;;;;;;6.43;3.80;;;;;;;16.91;48.87;101177.03;4974453;28;100869;-74
2022/05/09 00:16:53;;;;;;;12.20;4.88;;;;;;;16.75;48.80;101166.28;4992648;28;96694;-73
2022/05/09 00:19:20;;;;;;;7.18;4.55;;;;;;;16.83;48.78;101176.53;4991224;28;97343;-73
2022/05/09 00:21:48;;;;;;;13.07;4.60;;;;;;;16.75;48.62;101166.28;4975728;28;97717;-73
2022/05/09 00:24:16;;;;;;;11.68;4.80;;;;;;;16.70;48.58;101175.38;4972603;28;101043;-73
2022/05/09 00:26:45;;;;;;;;;;;;;;;16.57;49.40;101183.00;4993006;28;96699;-73
2022/05/09 00:29:12;;;;;;;11.48;5.38;;;;;;;16.55;49.43;101186.66;5024687;28;96828;-73
2022/05/09 00:31:39;;;;;;;11.27;5.45;;;;;;;16.56;48.88;101189.25;4991080;28;97688;-73
2022/05/09 00:34:05;;;;;;;9.57;5.43;;;;;;;16.52;48.99;101191.19;4957085;28;101406;-73
2022/05/09 00:36:31;;;;;;;10.68;5.32;;;;;;;16.26;49.24;101164.97;4972352;28;96648;-73
2022/05/09 00:38:59;;;;;;;10.18;4.80;;;;;;;16.43;49.27;101196.00;4987488;28;97227;-73
2022/05/09 00:41:34;;;;;;;9.93;4.88;;;;;;;16.25;49.24;101176.50;4991253;28;97533;-73
2022/05/09 00:44:35;;;;;;;10.98;5.05;;;;;;;16.17;49.72;101195.38;4976193;28;97825;-73
2022/05/09 00:47:01;;;;;;;9.60;5.55;;;;;;;16.02;49.99;101199.53;4952483;28;96852;-77
2022/05/09 00:49:31;;;;;;;8.18;4.75;;;;;;;16.09;49.85;101197.50;4954994;28;96947;-74
2022/05/09 00:52:00;;;;;;;9.15;5.22;;;;;;;15.99;49.84;101197.03;4974823;28;100863;-73
2022/05/09 00:54:28;;;;;;;11.32;5.13;;;;;;;15.80;50.08;101178.41;4990916;28;99192;-74
2022/05/09 00:57:02;;;;;;;8.63;5.25;;;;;;;16.02;49.63;101210.13;4974660;28;96725;-74
2022/05/09 00:59:29;;;;;;;9.77;5.63;;;;;;;16.03;49.48;101218.97;4990931;28;96822;-73
2022/05/09 01:01:54;;;;;;;8.20;4.30;;;;;;;15.98;49.70;101213.84;4971817;28;97535;-73
2022/05/09 01:04:22;;;;;;;11.50;5.63;;;;;;;15.93;49.43;101214.97;4962450;28;97360;-73
2022/05/09 01:06:48;;;;;;;11.73;5.25;;;;;;;15.89;49.00;101210.75;4971688;28;97445;-73
2022/05/09 01:09:14;;;;;;;13.30;5.25;;;;;;;15.93;48.94;101222.91;4990591;28;97139;-73
2022/05/09 01:11:45;;;;;;;11.30;5.50;;;;;;;15.88;49.13;101220.44;4971167;28;99363;-73
2022/05/09 01:14:20;;;;;;;9.27;4.60;;;;;;;15.69;48.96;101193.88;4961929;28;97978;-73
2022/05/09 01:16:46;;;;;;;9.13;4.85;;;;;;;15.60;49.12;101204.81;4962075;28;96709;-73
2022/05/09 01:19:20;;;;;;;10.15;4.90;;;;;;;15.76;48.51;101223.59;4973898;28;97185;-73
2022/05/09 01:21:45;;;;;;;8.75;4.63;;;;;;;15.54;49.08;101226.25;4991227;28;97813;-73
2022/05/09 01:24:18;;;;;;;10.43;4.25;;;;;;;15.53;49.17;101227.16;4991561;28;97360;-73
2022/05/09 01:26:44;;;;;;;10.68;5.20;;;;;;;15.35;49.60;101207.59;4958489;28;96700;-73
2022/05/09 01:29:21;;;;;;;10.25;4.80;;;;;;;15.46;49.01;101228.34;4957020;28;97044;-73
2022/05/09 01:31:49;;;;;;;8.93;4.53;;;;;;;15.44;49.23;101231.03;4964244;28;101743;-73
2022/05/09 01:34:17;;;;;;;11.82;4.50;;;;;;;15.30;49.47;101223.66;5003123;28;97911;-73
2022/05/09 01:36:44;;;;;;;11.02;4.90;;;;;;;15.23;49.67;101224.81;4982466;28;97245;-73
2022/05/09 01:39:11;;;;;;;8.98;4.50;;;;;;;15.24;49.17;101228.31;4990148;28;97301;-73
2022/05/09 01:41:48;;;;;;;8.40;4.35;;;;;;;15.22;49.27;101212.50;4963797;28;98264;-73
2022/05/09 01:44:14;;;;;;;11.98;4.57;;;;;;;15.29;49.46;101245.72;4956601;28;100996;-73
2022/05/09 01:49:29;;;;;;;10.40;4.57;;;;;;;15.22;49.47;101246.03;4991753;28;96672;-77
2022/05/09 01:51:56;;;;;;;10.15;4.78;;;;;;;15.03;49.56;101225.56;4990731;28;98080;-73
2022/05/09 01:54:21;;;;;;;12.32;5.22;;;;;;;15.19;49.54;101251.44;4979209;28;101076;-73
2022/05/09 01:56:47;;;;;;;10.98;4.70;;;;;;;15.10;49.55;101224.44;4973220;28;96872;-73
2022/05/09 01:59:13;;;;;;;9.95;5.18;;;;;;;15.07;49.74;101242.19;4987951;28;97552;-73
2022/05/09 02:01:45;;;;;;;11.10;4.53;;;;;;;14.95;49.96;101243.50;4957631;28;101269;-73
2022/05/09 02:04:11;;;;;;;12.05;5.32;;;;;;;14.97;49.89;101241.66;4973041;28;98064;-73
2022/05/09 02:06:38;;;;;;;12.40;4.45;;;;;;;14.96;49.81;101247.03;4991232;28;97140;-73
2022/05/09 02:09:07;;;;;;;10.75;4.75;;;;;;;14.87;49.87;101249.09;4957362;28;97173;-73
2022/05/09 02:11:33;;;;;;;12.32;4.72;;;;;;;14.80;49.62;101252.00;4990169;28;97991;-73
2022/05/09 02:13:59;;;;;;;11.93;4.88;;;;;;;14.74;49.60;101218.72;4962749;28;101429;-73
2022/05/09 02:16:25;;;;;;;9.32;4.40;;;;;;;14.84;49.65;101246.56;4967517;28;96760;-73
2022/05/09 02:18:50;;;;;;;11.80;4.68;;;;;;;14.77;49.48;101249.47;4982642;28;97160;-73
2022/05/09 02:21:16;;;;;;;7.82;4.05;;;;;;;14.80;49.17;101250.22;4990251;28;98626;-73
2022/05/09 02:23:42;;;;;;;9.05;4.18;;;;;;;14.73;49.52;101237.31;4957030;28;101369;-73
2022/05/09 02:26:08;;;;;;;6.53;3.20;;;;;;;14.73;48.82;101250.53;4957214;28;97232;-73
2022/05/09 02:28:34;;;;;;;9.43;4.30;;;;;;;14.57;48.95;101226.41;4957275;28;97401;-73
2022/05/09 02:31:00;;;;;;;7.55;3.92;;;;;;;14.70;48.80;101255.00;4974024;28;97505;-73
2022/05/09 02:33:26;;;;;;;12.10;4.30;;;;;;;14.71;48.86;101248.78;4989565;28;98053;-74
2022/05/09 02:35:52;;;;;;;17.38;4.50;;;;;;;14.70;48.74;101260.28;4990155;28;96690;-73
2022/05/09 02:38:18;;;;;;;12.80;4.82;;;;;;;14.67;49.05;101270.09;4973050;28;97155;-73
2022/05/09 02:40:44;;;;;;;8.73;4.32;;;;;;;14.73;48.58;101263.72;4954048;28;101084;-73
2022/05/09 02:43:10;;;;;;;13.13;4.00;;;;;;;14.71;48.53;101269.06;4959914;28;101408;-73
2022/05/09 02:45:35;;;;;;;14.95;4.28;;;;;;;14.76;48.83;101268.91;4970813;28;96680;-73
2022/05/09 02:48:01;;;;;;;6.85;3.47;;;;;;;14.49;48.98;101250.47;4969698;28;97179;-73
2022/05/09 02:50:27;;;;;;;9.35;4.13;;;;;;;14.63;48.45;101264.06;4969857;28;101062;-73
2022/05/09 02:52:54;;;;;;;15.60;4.97;;;;;;;14.56;48.59;101265.19;4956721;28;101276;-76
2022/05/09 02:55:21;;;;;;;9.73;4.60;;;;;;;14.65;48.18;101266.66;4981457;28;96823;-73
2022/05/09 02:57:47;;;;;;;11.13;4.40;;;;;;;14.46;48.61;101255.84;4989571;28;97617;-73
2022/05/09 03:00:18;;;;;;;15.02;5.55;;;;;;;14.36;48.99;101246.50;4969883;28;97510;-73
2022/05/09 03:04:38;;;;;;;11.02;4.63;;;;;;;14.36;48.89;101270.28;4984367;28;97567;-73
2022/05/09 03:05:30;;;;;;;11.98;4.40;;;;;;;14.38;48.94;101277.25;4975159;28;96765;-73
2022/05/09 03:07:56;;;;;;;13.13;4.65;;;;;;;14.29;48.55;101263.50;4962581;28;97164;-74
2022/05/09 03:10:23;;;;;;;11.38;4.90;;;;;;;14.25;49.03;101275.91;4976768;28;97593;-73
2022/05/09 03:12:50;;;;;;;10.52;4.68;;;;;;;14.24;48.92;101282.13;4959595;28;101008;-72
2022/05/09 03:15:16;;;;;;;13.57;4.80;;;;;;;14.28;49.14;101286.38;4976542;28;97558;-73
2022/05/09 03:17:42;;;;;;;11.30;5.43;;;;;;;14.20;48.55;101267.31;4992552;28;97417;-73
2022/05/09 03:20:09;;;;;;;11.93;5.05;;;;;;;14.17;49.08;101281.50;4972762;28;101195;-76
2022/05/09 03:22:34;;;;;;;10.43;4.90;;;;;;;14.12;49.36;101279.91;4990297;28;101664;-73
2022/05/09 03:25:00;;;;;;;13.48;5.47;;;;;;;14.14;49.40;101286.88;4994392;28;96678;-73
2022/05/09 03:27:26;;;;;;;11.85;5.20;;;;;;;14.18;49.22;101292.91;4958832;28;96869;-74
2022/05/09 03:29:52;;;;;;;12.27;6.18;;;;;;;14.29;49.06;101303.13;4993111;28;97565;-73
2022/05/09 03:32:17;;;;;;;14.20;5.10;;;;;;;14.33;48.72;101302.09;4992426;28;98857;-74
2022/05/09 03:34:43;;;;;;;11.55;5.43;;;;;;;14.29;48.98;101290.78;4959993;28;97259;-73
2022/05/09 03:37:09;;;;;;;15.45;6.32;;;;;;;14.24;48.89;101283.00;4962745;28;96824;-77
2022/05/09 03:39:34;;;;;;;18.88;5.10;;;;;;;14.32;48.42;101280.09;4974961;28;101406;-73
2022/05/09 03:42:00;;;;;;;9.65;4.55;;;;;;;14.41;48.43;101303.53;4975864;28;101177;-73
2022/05/09 03:44:25;;;;;;;14.48;4.97;;;;;;;14.25;48.59;101295.28;4975409;28;96718;-73
2022/05/09 03:46:51;;;;;;;12.52;4.63;;;;;;;14.40;48.36;101303.63;4976150;28;96859;-73
2022/05/09 03:49:16;;;;;;;12.00;4.15;;;;;;;14.42;48.55;101309.69;4974707;28;97302;-73
2022/05/09 03:51:42;;;;;;;14.40;4.70;;;;;;;14.43;48.09;101309.66;4959691;28;101296;-73
2022/05/09 03:54:07;;;;;;;14.32;5.00;;;;;;;14.56;48.20;101311.91;4992439;28;97269;-73
2022/05/09 03:56:33;;;;;;;9.93;4.43;;;;;;;14.50;48.52;101316.44;4973722;28;97000;-73
2022/05/09 03:58:58;;;;;;;11.45;4.75;;;;;;;14.55;47.76;101316.31;4971932;28;97455;-73
2022/05/09 04:01:24;;;;;;;13.95;4.68;;;;;;;14.55;47.59;101297.81;4992007;28;97926;-73
2022/05/09 04:03:49;;;;;;;11.85;5.00;;;;;;;14.49;47.05;101279.53;4972779;28;96665;-73
2022/05/09 04:06:15;;;;;;;11.85;4.45;;;;;;;14.52;47.51;101310.28;4991307;28;96835;-73
2022/05/09 04:08:40;;;;;;;10.48;3.75;;;;;;;14.55;47.27;101294.31;4991525;28;97607;-73
2022/05/09 04:11:06;;;;;;;10.20;3.75;;;;;;;14.74;47.66;101318.31;4958756;28;101530;-73
2022/05/09 04:13:31;;;;;;;10.68;4.22;;;;;;;14.76;46.80;101297.97;4991119;28;96796;-73
2022/05/09 04:18:43;;;;;;;13.52;4.00;;;;;;;14.86;46.66;101328.44;4966592;28;101254;-73
2022/05/09 04:21:11;;;;;;;14.50;4.20;;;;;;;15.14;46.02;101333.59;4989567;28;97869;-73
2022/05/09 04:23:38;;;;;;;10.85;3.88;;;;;;;15.21;46.04;101332.44;4972299;28;96719;-73
2022/05/09 04:26:04;;;;;;;10.25;4.18;;;;;;;15.23;45.91;101312.09;4975827;28;97179;-73
2022/05/09 04:28:31;;;;;;;10.95;4.22;;;;;;;15.39;46.03;101331.75;4974086;28;98279;-73
2022/05/09 04:30:57;;;;;;;10.80;4.68;;;;;;;15.72;45.42;101325.25;4976020;28;98418;-74
2022/05/09 04:33:22;;;;;;;11.40;4.20;;;;;;;15.78;44.75;101338.25;4991690;28;97359;-73
2022/05/09 04:35:48;;;;;;;13.38;5.22;;;;;;;15.69;44.66;101331.53;4975689;28;97356;-73
2022/05/09 04:38:22;;;;;;;20.75;5.03;;;;;;;15.67;44.56;101283.03;4953766;28;101517;-74
2022/05/09 04:40:52;;;;;;;12.77;4.32;;;;;;;16.07;44.41;101337.06;4989406;28;98219;-73
2022/05/09 04:43:19;;;;;;;9.70;3.83;;;;;;;16.09;44.40;101337.88;4971318;28;97264;-73
2022/05/09 04:45:45;;;;;;;9.40;4.10;;;;;;;16.12;43.86;101351.00;4954165;28;96934;-73
2022/05/09 04:48:11;;;;;;;12.13;4.22;;;;;;;16.16;43.94;101349.94;4982826;28;98019;-73
2022/05/09 04:50:36;;;;;;;11.07;3.58;;;;;;;16.19;43.29;101320.66;4987117;28;97610;-73
2022/05/09 04:53:02;;;;;;;16.10;3.90;;;;;;;16.43;42.81;101332.00;4983025;28;96792;-73
2022/05/09 04:55:30;;;;;;;12.20;3.40;;;;;;;16.73;42.58;101336.94;4971834;28;96788;-78
2022/05/09 04:57:56;;;;;;;10.13;4.35;;;;;;;17.00;42.14;101355.25;4962812;28;97695;-78
2022/05/09 05:00:25;;;;;;;18.17;4.43;;;;;;;16.75;42.55;101357.16;4991107;28;98306;-78
2022/05/09 05:02:51;;;;;;;13.00;4.95;;;;;;;16.86;42.82;101354.06;4991032;28;96692;-78
2022/05/09 05:05:16;;;;;;;10.45;4.15;;;;;;;17.08;41.70;101340.72;4970803;28;96690;-79
2022/05/09 05:07:42;;;;;;;9.70;4.10;;;;;;;17.46;41.01;101361.13;4973186;28;101615;-78
2022/05/09 05:10:08;;;;;;;11.05;4.10;;;;;;;17.57;40.73;101357.03;4973584;28;97513;-78
2022/05/09 05:12:34;;;;;;;19.90;4.72;;;;;;;17.42;41.12;101357.72;4983049;28;96804;-75
2022/05/09 05:15:00;;;;;;;13.70;4.60;;;;;;;17.82;41.06;101362.06;4990455;28;96919;-77
2022/05/09 05:17:26;;;;;;;17.63;5.00;;;;;;;18.04;40.03;101363.72;4952908;28;101254;-80
2022/05/09 05:19:51;;;;;;;13.30;4.20;;;;;;;18.51;39.67;101369.31;4969748;28;97380;-82
2022/05/09 05:22:17;;;;;;;12.20;4.80;;;;;;;18.41;38.95;101349.44;4983408;28;97023;-80
2022/05/09 05:24:44;;;;;;;9.38;4.15;;;;;;;19.01;38.23;101351.69;4971605;28;97585;-83
2022/05/09 05:27:12;;;;;;;10.07;4.43;;;;;;;19.38;37.65;101339.94;4982782;28;98422;-81
2022/05/09 05:29:38;;;;;;;10.13;3.80;;;;;;;20.23;37.20;101344.03;4990650;28;97548;-82
2022/05/09 05:32:21;;;;;;;11.10;4.13;;;;;;;20.85;35.18;101362.63;4971528;28;97539;-82
2022/05/09 05:34:50;;;;;;;15.77;4.35;;;;;;;22.15;33.46;101356.19;4983147;28;96867;-82
2022/05/09 05:37:16;;;;;;;9.68;4.07;;;;;;;23.10;32.53;101352.44;4985118;28;98657;-82
2022/05/09 05:39:43;;;;;;;8.15;3.53;;;;;;;23.58;31.15;101365.09;4990200;28;101217;-79
2022/05/09 05:42:10;;;;;;;8.07;4.25;;;;;;;23.92;30.51;101376.94;4974402;28;96752;-78
2022/05/09 05:44:37;;;;;;;9.93;3.85;;;;;;;24.83;29.35;101366.47;4954185;28;96902;-79
2022/05/09 05:47:12;;;;;;;8.18;3.90;;;;;;;25.39;28.99;101343.31;5006660;28;97463;-79
2022/05/09 05:49:39;;;;;;;15.48;4.13;;;;;;;25.68;28.74;101344.50;4989785;28;97499;-79
2022/05/09 05:52:05;;;;;;;8.15;4.28;;;;;;;26.64;27.44;101362.53;4973750;28;96746;-81
2022/05/09 05:54:36;;;;;;;9.25;4.50;;;;;;;27.31;26.31;101328.03;4970382;28;96994;-81
2022/05/09 05:57:03;;;;;;;8.52;4.10;;;;;;;28.17;25.70;101349.94;4970655;28;101338;-81
2022/05/09 05:59:29;;;;;;;7.88;4.20;;;;;;;28.57;25.23;101346.25;4969810;28;101789;-81
2022/05/09 06:01:58;;;;;;;10.48;3.92;;;;;;;28.05;25.13;101337.59;4969598;28;97467;-81
2022/05/09 06:04:23;;;;;;;9.77;4.63;;;;;;;28.75;24.68;101351.78;4969861;28;96870;-81
2022/05/09 06:06:50;;;;;;;17.38;4.65;;;;;;;29.16;24.71;101357.78;4957959;28;101192;-81
2022/05/09 06:09:16;;;;;;;11.80;4.05;;;;;;;30.06;23.81;101353.47;4989436;28;98323;-81
2022/05/09 06:11:43;;;;;;;11.68;3.97;;;;;;;30.21;22.93;101362.75;4957717;28;96770;-81
2022/05/09 06:14:09;;;;;;;8.40;4.13;;;;;;;30.40;23.05;101367.16;4973469;28;97318;-80
2022/05/09 06:16:36;;;;;;;9.00;4.05;;;;;;;30.29;23.27;101353.88;4953243;28;101027;-81
2022/05/09 06:19:04;;;;;;;10.65;3.92;;;;;;;30.60;22.75;101344.31;4953499;28;101437;-81
2022/05/09 06:21:33;;;;;;;9.82;3.83;;;;;;;31.11;22.03;101358.03;4970067;28;98243;-81
2022/05/09 06:24:00;;;;;;;9.93;3.90;;;;;;;31.02;22.13;101357.13;4970183;28;97232;-80
2022/05/09 06:26:26;;;;;;;8.07;3.90;;;;;;;31.63;21.90;101362.53;4969903;28;101782;-77
2022/05/09 06:28:52;;;;;;;10.75;4.82;;;;;;;31.54;22.16;101342.66;4967413;28;101129;-78
2022/05/09 06:31:18;;;;;;;10.52;4.25;;;;;;;32.51;21.37;101359.28;4994928;28;97235;-78
2022/05/09 06:33:44;;;;;;;10.07;4.95;;;;;;;32.33;21.19;101354.84;4974285;28;96982;-77
2022/05/09 06:36:09;;;;;;;7.35;3.70;;;;;;;31.77;21.62;101359.16;4957800;28;101561;-77
2022/05/09 06:38:34;;;;;;;9.52;4.05;;;;;;;32.25;21.01;101350.25;4955749;28;101226;-79
2022/05/09 06:41:01;;;;;;;9.75;4.20;;;;;;;31.50;21.85;101344.81;4960150;28;97292;-80
2022/05/09 06:43:28;;;;;;;7.50;4.30;;;;;;;32.19;21.57;101352.81;4993081;28;96867;-80
2022/05/09 06:45:53;;;;;;;10.60;3.97;;;;;;;32.88;20.90;101358.72;4960318;28;101523;-81
2022/05/09 06:48:19;;;;;;;10.73;4.13;;;;;;;32.85;21.23;101378.94;4992801;28;98338;-80
2022/05/09 06:50:45;;;;;;;7.38;3.75;;;;;;;32.62;21.10;101353.50;4960156;28;96835;-80
2022/05/09 06:53:12;;;;;;;9.48;4.15;;;;;;;34.05;20.59;101361.69;4973517;28;96991;-80
2022/05/09 06:55:37;;;;;;;10.48;4.43;;;;;;;33.64;20.34;101373.63;4975477;28;98044;-80
2022/05/09 06:58:07;;;;;;;9.10;4.22;;;;;;;33.44;20.81;101375.06;4992542;28;97531;-82
2022/05/09 07:00:34;;;;;;;7.95;3.90;;;;;;;32.92;20.69;101376.38;4988534;28;97255;-81
2022/05/09 07:02:59;;;;;;;8.65;3.97;;;;;;;34.46;20.54;101371.22;4957006;28;96966;-79
2022/05/09 07:05:24;;;;;;;10.18;4.88;;;;;;;35.23;19.48;101367.41;4974505;28;101487;-79
2022/05/09 07:07:50;;;;;;;10.70;4.13;;;;;;;34.43;19.22;101378.91;4972266;28;97376;-79
2022/05/09 07:10:17;;;;;;;8.57;4.35;;;;;;;33.52;20.17;101366.91;4993227;28;96704;-79
2022/05/09 07:12:45;;;;;;;13.43;5.25;;;;;;;34.95;19.36;101369.06;4971796;28;96897;-79
2022/05/09 07:15:13;;;;;;;8.25;4.22;;;;;;;36.00;18.32;101363.31;4981345;28;102477;-80
2022/05/09 07:17:40;;;;;;;12.18;4.03;;;;;;;36.39;18.54;101367.47;4988084;28;101365;-80
2022/05/09 07:20:06;;;;;;;9.05;3.78;;;;;;;36.18;19.03;101373.81;5006039;28;96822;-80
2022/05/09 07:22:31;;;;;;;6.50;3.80;;;;;;;34.82;19.27;101366.97;4973931;28;96811;-80
2022/05/09 07:24:57;;;;;;;12.38;4.72;;;;;;;35.23;19.34;101370.16;4991619;28;97642;-79
2022/05/09 07:27:22;;;;;;;8.20;4.03;;;;;;;36.05;18.74;101366.34;4984101;28;97477;-80
2022/05/09 07:29:48;;;;;;;8.98;3.67;;;;;;;36.86;18.18;101364.09;4977571;28;97248;-80
2022/05/09 07:32:14;;;;;;;14.68;5.22;;;;;;;37.16;18.13;101361.13;5007521;28;96887;-79
2022/05/09 07:34:39;;;;;;;6.72;4.55;;;;;;;36.62;18.44;101367.28;4955511;28;101140;-81
2022/05/09 07:37:05;;;;;;;9.32;4.45;;;;;;;35.32;19.10;101362.72;4972285;28;101448;-81
2022/05/09 07:39:31;;;;;;;9.82;4.93;;;;;;;37.46;18.28;101369.06;4977644;28;96801;-80
2022/05/09 07:41:57;;;;;;;10.43;4.68;;;;;;;36.91;17.98;101361.59;4979246;28;96905;-81
2022/05/09 07:44:23;;;;;;;13.35;4.95;;;;;;;36.78;18.43;101360.69;4938436;28;101497;-83
2022/05/09 07:46:48;;;;;;;10.02;4.78;;;;;;;37.24;18.28;101351.94;4969607;28;101428;-83
2022/05/09 07:49:14;;;;;;;13.70;4.40;;;;;;;37.10;17.98;101356.47;4958616;28;97676;-84
2022/05/09 07:51:40;;;;;;;9.00;4.20;;;;;;;37.21;17.77;101364.13;4991799;28;97159;-83
2022/05/09 07:54:06;;;;;;;13.07;4.95;;;;;;;37.29;18.01;101361.19;4978299;28;97541;-83
2022/05/09 07:56:32;;;;;;;11.90;4.20;;;;;;;37.32;17.92;101344.38;4991682;28;97465;-83
2022/05/09 07:58:59;;;;;;;12.27;4.40;;;;;;;36.83;18.38;101355.44;4975290;28;97253;-83
2022/05/09 08:01:25;;;;;;;8.73;4.32;;;;;;;37.62;18.04;101355.06;4982667;28;97477;-83
2022/05/09 08:03:50;;;;;;;8.23;4.38;;;;;;;37.67;17.81;101344.31;4973497;28;99304;-83
2022/05/09 08:06:16;;;;;;;11.10;4.72;;;;;;;36.83;18.20;101352.69;4974052;28;101309;-83
2022/05/09 08:08:43;;;;;;;6.13;3.70;;;;;;;36.37;18.32;101356.75;4988749;28;97378;-83
2022/05/09 08:11:11;;;;;;;8.73;5.10;;;;;;;37.20;18.00;101358.84;4946006;28;96890;-84
2022/05/09 08:13:39;;;;;;;10.77;4.50;;;;;;;36.90;18.94;101357.16;4983895;28;97451;-83
2022/05/09 08:16:05;;;;;;;9.90;4.07;;;;;;;38.12;17.54;101358.34;4990489;28;101506;-83
2022/05/09 08:18:32;;;;;;;9.63;4.68;;;;;;;37.71;18.00;101351.06;4990592;28;98435;-83
2022/05/09 08:21:01;;;;;;;8.90;4.38;;;;;;;38.05;18.21;101358.34;4990295;28;97544;-83
2022/05/09 08:23:28;;;;;;;7.32;3.92;;;;;;;37.60;18.09;101355.25;4963226;28;97386;-83
2022/05/09 08:25:57;;;;;;;9.65;4.45;;;;;;;37.66;18.05;101348.09;4975330;28;101470;-83
2022/05/09 08:28:22;;;;;;;9.95;4.35;;;;;;;37.11;18.15;101353.53;4971876;28;97190;-84
2022/05/09 08:30:49;;;;;;;12.98;4.25;;;;;;;37.21;18.34;101352.31;4970752;28;96894;-83
2022/05/09 08:33:17;;;;;;;8.55;4.20;;;;;;;37.38;18.09;101360.00;4991048;28;97461;-84
2022/05/09 08:35:44;;;;;;;8.63;4.40;;;;;;;37.74;17.31;101358.88;4974334;28;100884;-83
2022/05/09 08:38:10;;;;;;;8.77;3.97;;;;;;;37.75;17.76;101355.06;4954885;28;96721;-83
2022/05/09 08:40:54;;;;;;;7.15;4.10;;;;;;;38.60;17.70;101363.63;4971497;28;96869;-83
2022/05/09 08:43:28;;;;;;;9.45;4.20;;;;;;;37.93;17.16;101350.91;4971113;28;97913;-82
2022/05/09 08:46:31;;;;;;;7.85;4.00;;;;;;;37.82;17.81;101335.94;4991384;28;100955;-82
2022/05/09 08:49:19;;;;;;;6.03;4.07;;;;;;;37.33;17.71;101358.91;4983035;28;96994;-83
2022/05/09 08:52:00;;;;;;;8.82;3.97;;;;;;;38.07;18.01;101360.84;4990015;28;96839;-83
2022/05/09 08:54:26;;;;;;;6.38;3.53;;;;;;;38.94;16.85;101356.22;4965297;28;100567;-82
2022/05/09 08:56:57;;;;;;;8.25;4.05;;;;;;;38.93;17.07;101363.63;4958319;28;100660;-82
2022/05/09 08:59:31;;;;;;;7.88;4.03;;;;;;;38.33;17.34;101367.41;4963028;28;97095;-81
2022/05/09 09:02:13;;;;;;;8.90;4.68;;;;;;;38.15;16.56;101359.81;4991196;28;96655;-82
2022/05/09 09:04:40;;;;;;;9.75;4.40;;;;;;;38.26;16.84;101337.28;4970985;28;97496;-81
2022/05/09 09:07:28;;;;;;;8.45;4.43;;;;;;;37.13;17.77;101340.50;4958344;28;101169;-81
2022/05/09 09:10:08;;;;;;;8.82;3.85;;;;;;;36.90;18.94;101365.38;4974440;28;96701;-81
2022/05/09 09:12:39;;;;;;;7.72;3.83;;;;;;;36.76;17.78;101362.75;4990662;28;96773;-80
2022/05/09 09:15:27;;;;;;;6.57;4.03;;;;;;;35.47;18.62;101358.06;4992574;28;97595;-78
2022/05/09 09:18:08;;;;;;;9.38;3.67;;;;;;;36.15;18.77;101349.59;4992264;28;97139;-82
2022/05/09 09:21:01;;;;;;;7.32;3.17;;;;;;;35.68;18.88;101368.22;4958333;28;96673;-80
2022/05/09 09:23:59;;;;;;;8.30;3.55;;;;;;;35.27;19.40;101360.53;4990372;28;96772;-82
2022/05/09 09:26:33;;;;;;;10.32;3.40;;;;;;;34.53;19.56;101365.88;4990543;28;97501;-82
2022/05/09 09:29:09;;;;;;;8.02;3.53;;;;;;;34.18;19.72;101360.06;4991311;28;96767;-84
2022/05/09 09:31:38;;;;;;;9.07;3.80;;;;;;;34.09;20.07;101352.09;4991261;28;96655;-84
2022/05/09 09:34:29;;;;;;;6.75;3.63;;;;;;;33.94;20.22;101360.19;4957176;28;97207;-85
2022/05/09 09:37:06;;;;;;;7.72;3.47;;;;;;;33.05;20.76;101352.25;4974295;28;98145;-82
2022/05/09 09:39:33;;;;;;;8.40;3.53;;;;;;;33.04;20.84;101358.69;4957507;28;101598;-82
2022/05/09 09:42:01;;;;;;;8.18;3.70;;;;;;;32.65;20.74;101359.44;4956279;28;96756;-82
2022/05/09 09:44:28;;;;;;;7.60;3.60;;;;;;;32.41;20.63;101356.72;4953681;28;96951;-82
2022/05/09 09:47:02;;;;;;;8.65;3.30;;;;;;;32.21;20.81;101329.06;4969047;28;100318;-83
2022/05/09 09:49:29;;;;;;;8.70;3.17;;;;;;;32.15;21.13;101344.16;4990891;28;97224;-83
2022/05/09 09:51:54;;;;;;;6.35;3.28;;;;;;;31.47;21.78;101350.56;4973541;28;96779;-85
2022/05/09 09:54:22;;;;;;;8.98;3.20;;;;;;;31.82;21.55;101320.66;4982166;28;97232;-84
2022/05/09 09:56:48;;;;;;;6.72;3.33;;;;;;;31.83;21.35;101334.06;4974100;28;97721;-85
2022/05/09 09:59:13;;;;;;;9.02;3.00;;;;;;;31.54;21.47;101346.22;4990479;28;97369;-85
2022/05/09 10:01:43;;;;;;;9.38;3.58;;;;;;;31.71;21.31;101338.97;4989834;28;96650;-84
2022/05/09 10:04:10;;;;;;;6.50;2.80;;;;;;;31.11;21.33;101328.19;4964824;28;96687;-87
2022/05/09 10:06:54;;;;;;;8.48;2.90;;;;;;;30.82;21.53;101342.09;4958640;28;101182;-85
2022/05/09 10:09:21;;;;;;;7.80;2.92;;;;;;;30.21;21.31;101339.25;4995448;28;97179;-84
2022/05/09 10:11:47;;;;;;;5.32;2.78;;;;;;;29.87;22.15;101327.38;4961018;28;96839;-83
2022/05/09 10:14:31;;;;;;;6.93;2.67;;;;;;;29.64;21.53;101335.94;4973627;28;97117;-83
2022/05/09 10:17:28;;;;;;;7.72;2.83;;;;;;;29.88;22.17;101329.94;4973964;28;100735;-83
2022/05/09 10:19:55;;;;;;;6.07;3.00;;;;;;;29.95;21.67;101336.44;4974066;28;101587;-81
2022/05/09 10:25:20;;;;;;;8.15;3.00;;;;;;;27.97;22.84;101328.34;4970969;28;97406;-84
2022/05/09 10:27:47;;;;;;;10.32;3.10;;;;;;;27.63;24.25;101327.81;4975566;28;100957;-84
2022/05/09 10:30:29;;;;;;;8.30;2.70;;;;;;;27.28;24.34;101322.91;4961089;28;101106;-84
2022/05/09 10:32:57;;;;;;;8.07;2.95;;;;;;;27.26;24.23;101306.03;4992766;28;97376;-84
2022/05/09 10:35:31;;;;;;;7.32;2.63;;;;;;;26.87;24.46;101325.53;4994391;28;97273;-87
2022/05/09 10:38:13;;;;;;;12.98;3.03;;;;;;;26.60;24.60;101334.16;4960101;28;100975;-84
2022/05/09 10:40:49;;;;;;;10.23;3.28;;;;;;;26.16;25.43;101311.88;4993863;28;98347;-86
2022/05/09 10:43:34;;;;;;;6.35;3.05;;;;;;;25.87;25.84;101321.53;4977496;28;96821;-89
2022/05/09 10:46:05;;;;;;;8.93;2.72;;;;;;;25.92;25.16;101312.09;4962354;28;96899;-86
2022/05/09 10:48:45;;;;;;;5.85;2.33;;;;;;;25.96;26.09;101335.06;4974724;28;98365;-86
2022/05/09 10:51:14;;;;;;;6.80;2.17;;;;;;;25.94;27.45;101333.47;4994395;28;97137;-86
2022/05/09 10:53:53;;;;;;;7.75;2.53;;;;;;;26.13;27.10;101322.88;4967557;28;96770;-86
2022/05/09 10:56:25;;;;;;;5.25;2.55;;;;;;;26.26;26.19;101319.16;4994991;28;96615;-87
2022/05/09 10:58:59;;;;;;;11.45;3.08;;;;;;;26.52;25.20;101319.66;4977054;28;98288;-87
2022/05/09 11:01:31;;;;;;;6.93;2.90;;;;;;;26.24;25.96;101326.50;4961033;28;101033;-85
2022/05/09 11:03:57;;;;;;;10.48;3.00;;;;;;;26.14;25.97;101324.59;4977623;28;96695;-87
2022/05/09 11:06:41;;;;;;;9.05;2.60;;;;;;;26.11;25.51;101316.78;4977496;28;97102;-85
2022/05/09 11:09:22;;;;;;;6.90;2.45;;;;;;;25.89;26.01;101306.09;4994128;28;98156;-87
2022/05/09 11:11:47;;;;;;;;;;;;;;;25.73;25.96;101315.41;4994624;28;100572;-86
2022/05/09 11:14:27;;;;;;;7.53;2.60;;;;;;;25.60;26.42;101309.34;4995030;28;96682;-86
2022/05/09 11:17:09;;;;;;;10.40;3.10;;;;;;;25.43;25.60;101297.28;4978683;28;97239;-87
2022/05/09 11:19:42;;;;;;;8.13;2.60;;;;;;;25.67;26.35;101315.06;4989679;28;97479;-87
2022/05/09 11:22:28;;;;;;;12.50;3.20;;;;;;;25.67;26.99;101285.50;4985297;28;97382;-87
2022/05/09 11:25:02;;;;;;;8.90;3.20;;;;;;;25.63;26.27;101313.63;4981596;28;96892;-83
2022/05/09 11:27:56;;;;;;;7.85;2.85;;;;;;;25.01;26.83;101307.75;4993730;28;96576;-82
2022/05/09 11:30:35;;;;;;;7.65;2.72;;;;;;;24.51;25.84;101292.94;4994070;28;98009;-85
2022/05/09 11:33:03;;;;;;;13.45;2.55;;;;;;;24.97;25.86;101309.00;4975652;28;101256;-85
2022/05/09 11:35:34;;;;;;;11.13;3.60;;;;;;;25.29;26.45;101295.72;4993134;28;96715;-84
2022/05/09 11:38:23;;;;;;;14.18;4.85;;;;;;;25.68;26.80;101293.41;4993573;28;97002;-86